createdAt,value
2023-03-18T00:02:32.426Z,61.43
2023-03-18T00:07:36.043Z,63.95
2023-03-18T00:12:39.736Z,67.29
2023-03-18T00:17:44.098Z,69.36
2023-03-18T00:22:46.849Z,71.08
2023-03-18T00:27:49.945Z,74.01
2023-03-18T00:32:54.205Z,75.08
2023-03-18T00:37:58.404Z,76.49
2023-03-18T00:43:08.079Z,75.78
2023-03-18T00:48:12.255Z,77.30
2023-03-18T00:53:15.343Z,78.66
2023-03-18T00:58:18.164Z,78.97
2023-03-18T01:03:25.712Z,79.77
2023-03-18T01:08:29.881Z,79.73
2023-03-18T01:13:33.128Z,80.99
2023-03-18T01:18:38.189Z,81.65
2023-03-18T01:23:42.348Z,83.18
2023-03-18T01:28:45.717Z,82.81
2023-03-18T01:33:51.010Z,83.34
2023-03-18T01:38:53.896Z,83.34
2023-03-18T01:43:56.809Z,84.01
2023-03-18T01:49:03.935Z,83.96
2023-03-18T01:54:08.845Z,83.86
2023-03-18T01:59:12.445Z,83.94
2023-03-18T02:04:17.685Z,84.43
2023-03-18T02:09:20.602Z,84.66
2023-03-18T02:14:27.709Z,84.39
2023-03-18T02:19:46.270Z,83.52
2023-03-18T02:25:00.748Z,83.80
2023-03-18T02:30:09.303Z,83.07
2023-03-18T02:35:14.079Z,83.20
2023-03-18T02:40:19.588Z,83.53
2023-03-18T02:45:39.498Z,83.64
2023-03-18T02:50:50.204Z,84.16
2023-03-18T02:55:53.106Z,84.39
2023-03-18T03:00:58.458Z,83.81
2023-03-18T03:06:01.964Z,84.04
2023-03-18T03:11:05.542Z,83.73
2023-03-18T03:16:13.997Z,83.42
2023-03-18T03:21:17.021Z,83.49
2023-03-18T03:26:20.459Z,82.91
2023-03-18T03:31:27.264Z,83.06
2023-03-18T03:36:30.192Z,83.16
2023-03-18T03:41:33.960Z,83.24
2023-03-18T03:46:38.322Z,83.68
2023-03-18T03:51:41.737Z,82.66
2023-03-18T03:56:44.565Z,82.49
2023-03-18T04:01:48.963Z,82.78
2023-03-18T04:06:51.743Z,82.35
2023-03-18T04:11:54.713Z,81.57
2023-03-18T04:17:00.397Z,80.93
2023-03-18T04:22:04.638Z,80.31
2023-03-18T04:27:08.302Z,80.70
2023-03-18T04:32:12.801Z,80.26
2023-03-18T04:37:19.791Z,80.23
2023-03-18T04:42:24.792Z,80.64
2023-03-18T04:47:29.133Z,79.79
2023-03-18T04:52:33.612Z,79.24
2023-03-18T04:57:38.409Z,78.19
2023-03-18T05:02:45.593Z,78.30
2023-03-18T05:07:48.676Z,77.51
2023-03-18T05:12:54.434Z,77.52
2023-03-18T05:18:06.547Z,77.96
2023-03-18T05:23:10.451Z,77.96
2023-03-18T05:28:23.781Z,78.06
2023-03-18T05:33:43.744Z,77.75
2023-03-18T05:38:48.627Z,77.62
2023-03-18T05:43:51.726Z,77.24
2023-03-18T05:48:56.565Z,77.43
2023-03-18T05:54:05.075Z,76.88
2023-03-18T05:59:16.284Z,77.18
2023-03-18T06:04:28.073Z,76.50
2023-03-18T06:09:30.954Z,75.70
2023-03-18T06:14:34.307Z,76.56
2023-03-18T06:19:40.192Z,76.67
2023-03-18T06:24:46.547Z,75.43
2023-03-18T06:29:52.344Z,76.18
2023-03-18T06:34:57.176Z,76.19
2023-03-18T06:40:00.278Z,75.76
2023-03-18T06:45:03.763Z,75.24
2023-03-18T06:50:20.625Z,75.46
2023-03-18T06:55:23.867Z,74.48
2023-03-18T07:00:27.931Z,73.94
2023-03-18T07:05:33.013Z,73.77
2023-03-18T07:10:36.421Z,73.59
2023-03-18T07:15:45.379Z,72.92
2023-03-18T07:20:50.511Z,71.62
2023-03-18T07:25:53.428Z,69.40
2023-03-18T07:30:56.507Z,70.21
2023-03-18T07:36:01.098Z,69.98
2023-03-18T07:41:05.260Z,70.45
2023-03-18T07:46:08.178Z,69.92
2023-03-18T07:51:12.328Z,71.10
2023-03-18T07:56:15.057Z,71.09
2023-03-18T08:01:19.456Z,70.77
2023-03-18T08:06:23.979Z,70.91
2023-03-18T08:11:26.958Z,70.02
2023-03-18T08:16:29.796Z,69.65
2023-03-18T08:21:33.983Z,69.92
2023-03-18T08:26:36.913Z,69.97
2023-03-18T08:31:39.816Z,68.09
2023-03-18T08:36:45.046Z,67.73
2023-03-18T08:41:48.705Z,69.60
2023-03-18T08:46:51.535Z,69.02
2023-03-18T08:51:56.608Z,69.18
2023-03-18T08:57:00.572Z,67.54
2023-03-18T09:02:03.456Z,66.81
2023-03-18T09:07:07.662Z,67.10
2023-03-18T09:12:11.889Z,66.10
2023-03-18T09:17:14.709Z,66.90
2023-03-18T09:22:19.178Z,66.95
2023-03-18T09:27:21.990Z,67.74
2023-03-18T09:32:24.696Z,66.45
2023-03-18T09:37:28.910Z,66.21
2023-03-18T09:42:45.900Z,67.06
2023-03-18T09:48:02.183Z,67.47
2023-03-18T09:53:22.429Z,65.92
2023-03-18T09:58:29.187Z,64.78
2023-03-18T10:03:38.066Z,64.93
2023-03-18T10:08:53.614Z,63.87
2023-03-18T10:14:18.400Z,64.98
2023-03-18T10:19:21.131Z,64.48
2023-03-18T10:24:33.910Z,64.80
2023-03-18T10:29:42.901Z,63.98
2023-03-18T10:34:58.097Z,63.16
2023-03-18T10:40:03.353Z,62.61
2023-03-18T10:45:17.214Z,64.69
2023-03-18T10:50:25.381Z,64.30
2023-03-18T10:55:34.337Z,63.89
2023-03-18T11:00:37.367Z,62.01
2023-03-18T11:05:40.286Z,57.21
2023-03-18T11:10:48.080Z,56.44
2023-03-18T11:15:52.886Z,57.08
2023-03-18T11:21:00.598Z,58.41
2023-03-18T11:26:09.416Z,54.83
2023-03-18T11:31:18.776Z,54.55
2023-03-18T11:36:24.974Z,54.53
2023-03-18T11:41:30.321Z,51.60
2023-03-18T11:46:38.651Z,47.99
2023-03-18T11:51:48.453Z,49.81
2023-03-18T11:56:57.237Z,48.24
2023-03-18T12:02:14.108Z,46.94
2023-03-18T12:07:31.259Z,46.90
2023-03-18T12:12:49.655Z,51.00
2023-03-18T12:18:02.651Z,52.62
2023-03-18T12:23:11.928Z,52.41
2023-03-18T12:28:32.727Z,50.37
2023-03-18T12:33:51.844Z,47.35
2023-03-18T12:39:09.966Z,43.74
2023-03-18T12:44:24.164Z,44.58
2023-03-18T12:49:33.963Z,46.91
2023-03-18T12:54:42.892Z,44.88
2023-03-18T12:59:53.721Z,43.15
2023-03-18T13:05:00.698Z,41.87
2023-03-18T13:10:09.863Z,37.02
2023-03-18T13:15:24.554Z,36.83
2023-03-18T13:20:31.722Z,37.05
2023-03-18T13:25:41.841Z,42.61
2023-03-18T13:31:00.757Z,45.85
2023-03-18T13:36:40.628Z,45.73
2023-03-18T13:41:59.021Z,44.82
2023-03-18T13:47:07.350Z,39.80
2023-03-18T13:52:25.499Z,42.59
2023-03-18T13:57:36.143Z,45.23
2023-03-18T14:02:47.978Z,48.21
2023-03-18T14:07:50.810Z,48.15
2023-03-18T14:12:53.669Z,48.16
2023-03-18T14:17:59.125Z,48.37
2023-03-18T14:23:25.067Z,48.87
2023-03-18T14:28:28.565Z,47.28
2023-03-18T14:33:48.385Z,47.12
2023-03-18T14:39:01.865Z,47.72
2023-03-18T14:44:12.494Z,47.52
2023-03-18T14:49:39.872Z,47.97
2023-03-18T14:54:45.872Z,47.28
2023-03-18T14:59:48.685Z,47.01
2023-03-18T15:04:55.404Z,47.13
2023-03-18T15:09:58.924Z,46.03
2023-03-18T15:15:01.698Z,45.63
2023-03-18T15:20:07.010Z,44.08
2023-03-18T15:25:18.753Z,43.65
2023-03-18T15:30:26.522Z,42.50
2023-03-18T15:35:31.968Z,43.67
2023-03-18T15:40:36.647Z,43.11
2023-03-18T15:45:45.717Z,43.11
2023-03-18T15:50:56.160Z,41.92
2023-03-18T15:56:08.407Z,41.11
2023-03-18T16:01:17.168Z,42.31
2023-03-18T16:06:22.707Z,44.50
2023-03-18T16:11:26.171Z,46.55
2023-03-18T16:16:30.531Z,47.19
2023-03-18T16:21:34.682Z,47.97
2023-03-18T16:26:37.873Z,48.12
2023-03-18T16:31:40.822Z,48.63
2023-03-18T16:36:45.942Z,48.62
2023-03-18T16:41:49.650Z,48.92
2023-03-18T16:46:54.886Z,49.97
2023-03-18T16:51:59.247Z,50.34
2023-03-18T16:57:04.589Z,50.73
2023-03-18T17:02:25.520Z,51.72
2023-03-18T17:07:29.737Z,52.28
2023-03-18T17:12:32.508Z,52.71
2023-03-18T17:17:36.717Z,52.87
2023-03-18T17:22:40.998Z,52.80
2023-03-18T17:27:46.208Z,53.71
2023-03-18T17:32:50.134Z,55.06
2023-03-18T17:37:54.566Z,55.09
2023-03-18T17:42:57.561Z,55.15
2023-03-18T17:48:15.955Z,55.39
2023-03-18T17:53:30.803Z,58.84
2023-03-18T17:58:34.929Z,61.39
2023-03-18T18:03:40.389Z,76.91
2023-03-18T18:08:44.756Z,100.00
2023-03-18T18:13:48.131Z,100.00
2023-03-18T18:18:51.517Z,100.00
2023-03-18T18:23:56.069Z,100.00
2023-03-18T18:28:58.835Z,100.00
2023-03-18T18:34:01.744Z,100.00
2023-03-18T18:39:06.291Z,98.99
2023-03-18T18:44:09.361Z,98.97
2023-03-18T18:49:21.955Z,98.45
2023-03-18T18:54:26.114Z,98.39
2023-03-18T18:59:31.854Z,96.19
2023-03-18T19:04:34.860Z,96.31
2023-03-18T19:09:46.422Z,95.69
2023-03-18T19:14:49.356Z,96.55
2023-03-18T19:19:53.704Z,96.96
2023-03-18T19:24:58.695Z,96.75
2023-03-18T19:30:05.419Z,96.42
2023-03-18T19:35:11.021Z,95.77
2023-03-18T19:40:24.323Z,95.47
2023-03-18T19:45:27.260Z,95.81
2023-03-18T19:50:29.983Z,95.81
2023-03-18T19:55:34.112Z,95.23
2023-03-18T20:00:36.856Z,95.73
2023-03-18T20:05:39.616Z,95.68
2023-03-18T20:10:44.667Z,95.49
2023-03-18T20:15:48.884Z,95.48
2023-03-18T20:20:52.440Z,95.65
2023-03-18T20:25:57.061Z,95.42
2023-03-18T20:31:00.808Z,95.29
2023-03-18T20:36:04.177Z,95.55
2023-03-18T20:41:08.303Z,95.68
2023-03-18T20:46:14.212Z,95.60
2023-03-18T20:51:22.149Z,95.15
2023-03-18T20:56:27.563Z,95.24
2023-03-18T21:01:30.392Z,95.08
2023-03-18T21:06:33.203Z,94.85
2023-03-18T21:11:38.620Z,95.24
2023-03-18T21:16:41.668Z,95.26
2023-03-18T21:21:44.463Z,95.14
2023-03-18T21:27:03.130Z,95.21
2023-03-18T21:32:07.328Z,95.08
2023-03-18T21:37:15.960Z,95.07
2023-03-18T21:42:24.206Z,95.05
2023-03-18T21:47:27.395Z,95.07
2023-03-18T21:52:33.341Z,95.20
2023-03-18T21:57:37.976Z,95.11
2023-03-18T22:02:41.109Z,95.15
2023-03-18T22:07:43.926Z,95.07
2023-03-18T22:12:48.141Z,94.98
2023-03-18T22:17:51.980Z,94.96
2023-03-18T22:22:55.104Z,94.88
2023-03-18T22:28:00.385Z,94.52
2023-03-18T22:33:05.416Z,93.84
2023-03-18T22:38:12.159Z,93.85
2023-03-18T22:43:29.364Z,93.76
2023-03-18T22:48:32.888Z,93.72
2023-03-18T22:53:38.003Z,93.66
2023-03-18T22:58:42.456Z,93.75
2023-03-18T23:03:46.858Z,93.92
2023-03-18T23:08:49.645Z,93.21
2023-03-18T23:13:53.879Z,93.65
2023-03-18T23:18:56.621Z,93.33
2023-03-18T23:23:59.332Z,93.50
2023-03-18T23:29:03.657Z,93.39
2023-03-18T23:34:06.670Z,93.31
2023-03-18T23:39:09.412Z,93.28
2023-03-18T23:44:13.486Z,93.20
2023-03-18T23:49:16.586Z,93.07
2023-03-18T23:54:19.308Z,92.88
2023-03-18T23:59:23.769Z,92.93
